Saturday, December 15, 2018, 11:44 PM EST
Back to Local

KMSV, Monticello, Sullivan County International Airport

Location: Swan Lake, NY, United States Lat: 41.7
Local Time: 11:44 PM EST ( 4:44 GMT) Lon: -74.8
Time Zone: US/Eastern Elev: 1404 ft

Show me the last for .
Show Decoded

2018-12-15 22:56 METAR KMSV 160356Z AUTO 05007KT 10SM CLR 02/00 A3011 RMK AO2 SLP206 T00220000
                 FZRANO =
2018-12-15 21:56 METAR KMSV 160256Z AUTO 08006KT 10SM CLR 03/00 A3014 RMK AO2 SLP214 T00280000
                 58000 =
2018-12-15 20:56 METAR KMSV 160156Z AUTO 08006KT 10SM CLR 03/01 A3015 RMK AO2 SLP221 T00280006 =
2018-12-15 19:56 METAR KMSV 160056Z AUTO 05007KT 10SM CLR 03/01 A3015 RMK AO2 SLP222 T00330006 =
2018-12-15 18:56 METAR KMSV 152356Z AUTO VRB06KT 10SM CLR 04/02 A3014 RMK AO2 SLP216 T00390017
                 10089 20039 53013 =
2018-12-15 16:56 METAR KMSV 152156Z AUTO 04007KT 10SM CLR 06/04 A3005 RMK AO2 SLP185 T00560044 =
2018-12-15 15:56 METAR KMSV 152056Z AUTO 00000KT 10SM CLR 07/03 A3010 RMK AO2 SLP201 T00720028
                 56012 =
2018-12-15 14:56 METAR KMSV 151956Z AUTO 00000KT 10SM CLR 08/04 A3010 RMK AO2 SLP202 T00780044 =
2018-12-15 13:56 METAR KMSV 151856Z AUTO 35004KT 10SM CLR 08/04 A3012 RMK AO2 SLP209 T00830039 =
2018-12-15 12:56 METAR KMSV 151756Z AUTO 00000KT 10SM CLR 09/04 A3013 RMK AO2 SLP213 T00890044
                 10089 20033 55015 =
2018-12-15 11:56 METAR KMSV 151656Z AUTO 01004KT 10SM CLR 08/06 A3013 RMK AO2 SLP213 T00830061 =
2018-12-15 10:56 METAR KMSV 151556Z AUTO 04004KT 10SM FEW041 08/06 A3016 RMK AO2 SLP222 T00780056
                 =
2018-12-15 09:56 METAR KMSV 151456Z AUTO 00000KT 5SM BR SCT029 OVC039 07/06 A3018 RMK AO2 SLP230
                 T00670061 50004 =
2018-12-15 09:40 METAR KMSV 151440Z AUTO 00000KT 8SM OVC029 06/06 A3019 RMK AO2 =
2018-12-15 08:56 METAR KMSV 151356Z AUTO 00000KT 4SM BR OVC031 05/05 A3019 RMK AO2 SLP234
                 T00500050 =
2018-12-15 08:09 METAR KMSV 151309Z AUTO 32003KT 3SM BR OVC025 04/03 A3018 RMK AO2 =
2018-12-15 08:05 METAR KMSV 151305Z AUTO 33003KT 1 1/2SM BR OVC025 03/03 A3017 RMK AO2 VIS 1/2V4
                 =
2018-12-15 08:01 METAR KMSV 151301Z AUTO 00000KT 3/4SM BR OVC023 03/03 A3017 RMK AO2 RVRNO =
2018-12-15 07:53 METAR KMSV 151253Z AUTO 00000KT 1/4SM FG OVC023 03/03 A3017 RMK AO2 SLP230
                 T00330033 RVRNO =
2018-12-15 07:52 METAR KMSV 151252Z AUTO 00000KT 1/4SM FG OVC023 03/03 A3017 RMK AO2 RVRNO =
2018-12-15 07:32 METAR KMSV 151232Z AUTO 00000KT 3/4SM BR OVC019 04/04 A3017 RMK AO2 RVRNO =
2018-12-15 07:27 METAR KMSV 151227Z AUTO 00000KT 1 3/4SM BR OVC019 04/04 A3016 RMK AO2 VIS 3/4V4
                 =
2018-12-15 07:08 METAR KMSV 151208Z AUTO 00000KT 4SM BR SCT008 BKN016 OVC022 04/04 A3017 RMK AO2
                 =
2018-12-15 06:56 METAR KMSV 151156Z AUTO 31003KT 2 1/2SM BR BKN008 OVC022 04/04 A3017 RMK AO2 VIS
                 1V5 RAE44 CIG 007V012 SLP228 P0001 60011 70013 T00390039 10039 20033 56002 =
2018-12-15 06:47 METAR KMSV 151147Z AUTO 00000KT 5SM BR BKN008 OVC022 04/03 A3017 RMK AO2 RAE44
                 P0001 =
2018-12-15 06:37 METAR KMSV 151137Z AUTO 00000KT 2SM -RA BR OVC008 04/03 A3017 RMK AO2 P0001 =
2018-12-15 06:29 METAR KMSV 151129Z AUTO 30003KT 1SM -RA BR OVC006 04/03 A3017 RMK AO2 P0001
                 RVRNO =
2018-12-15 06:13 METAR KMSV 151113Z AUTO 00000KT 1 3/4SM -RA BR OVC006 03/03 A3016 RMK AO2 P0000
                 =
2018-12-15 06:05 METAR KMSV 151105Z AUTO 00000KT 1SM -RA BR OVC006 03/03 A3017 RMK AO2 P0000
                 RVRNO =
2018-12-15 05:56 METAR KMSV 151056Z AUTO 31003KT 1/2SM -RA FG OVC006 03/03 A3017 RMK AO2 RAB08
                 SLP230 P0000 T00330028 RVRNO =
2018-12-15 05:37 METAR KMSV 151037Z AUTO 00000KT 3/4SM -RA BR OVC008 04/03 A3018 RMK AO2 RAB08
                 P0000 RVRNO =
2018-12-15 05:25 METAR KMSV 151025Z AUTO 00000KT 1 3/4SM -RA BR OVC008 03/03 A3016 RMK AO2 VIS 1
                 1/4V2 1/2 RAB08 P0000 =
2018-12-15 05:15 METAR KMSV 151015Z AUTO 00000KT 1SM -RA BR OVC008 03/03 A3016 RMK AO2 RAB08
                 P0000 RVRNO =
2018-12-15 04:56 METAR KMSV 150956Z AUTO 31003KT 1/2SM FG OVC008 03/03 A3017 RMK AO2 RAE53 CIG
                 005V010 SLP229 P0000 T00330033 RVRNO =
2018-12-15 04:41 METAR KMSV 150941Z AUTO 00000KT 1/2SM -RA FG OVC008 03/03 A3017 RMK AO2 CIG
                 005V010 P0000 RVRNO =
2018-12-15 04:32 METAR KMSV 150932Z AUTO 00000KT 1SM BR BKN008 OVC012 04/03 A3017 RMK AO2 RAE21
                 CIG 005V011 P0000 RVRNO =
2018-12-15 04:21 METAR KMSV 150921Z AUTO 00000KT 3/4SM BR FEW004 OVC010 04/03 A3017 RMK AO2 RAE21
                 P0000 RVRNO =
2018-12-15 03:56 METAR KMSV 150856Z AUTO 00000KT 1 1/4SM -RA BR FEW003 OVC010 03/03 A3018 RMK AO2
                 CIG 007V012 SLP231 P0004 60010 T00330033 58011 =
2018-12-15 03:54 METAR KMSV 150854Z AUTO 00000KT 1 1/4SM -RA BR FEW006 OVC010 03/03 A3018 RMK AO2
                 P0004 =
2018-12-15 03:36 METAR KMSV 150836Z AUTO 31004KT 1SM -RA BR BKN012 OVC018 04/03 A3019 RMK AO2
                 P0003 RVRNO =
2018-12-15 03:27 METAR KMSV 150827Z AUTO 31003KT 3/4SM -RA BR FEW004 BKN009 OVC016 03/03 A3019
                 RMK AO2 CIG 008V012 P0002 RVRNO =
2018-12-15 03:21 METAR KMSV 150821Z AUTO 31003KT 1 1/4SM -RA BR FEW004 BKN011 OVC018 03/03 A3019
                 RMK AO2 P0002 =
2018-12-15 03:15 METAR KMSV 150815Z AUTO 00000KT 1SM -RA BR SCT004 SCT009 OVC018 03/03 A3019 RMK
                 AO2 P0002 RVRNO =
2018-12-15 03:07 METAR KMSV 150807Z AUTO 00000KT 3/4SM -RA BR SCT006 BKN009 OVC018 03/03 A3020
                 RMK AO2 P0001 RVRNO =
2018-12-15 02:58 METAR KMSV 150758Z AUTO 32003KT 1/2SM -RA FG SCT003 BKN011 OVC016 03/03 A3020
                 RMK AO2 CIG 009V014 P0000 RVRNO =
2018-12-15 02:56 METAR KMSV 150756Z AUTO 32003KT 3/4SM -RA BR SCT003 SCT011 OVC016 04/03 A3021
                 RMK AO2 SLP240 P0004 T00390033 RVRNO =
2018-12-15 02:54 METAR KMSV 150754Z AUTO 31004KT 3/4SM -RA BR SCT003 OVC016 04/03 A3021 RMK AO2
                 P0004 RVRNO =
2018-12-15 02:42 METAR KMSV 150742Z AUTO 00000KT 1 1/4SM -RA BR FEW003 OVC016 03/03 A3020 RMK AO2
                 P0003 =
2018-12-15 02:25 METAR KMSV 150725Z AUTO 00000KT 3/4SM -RA BR FEW003 OVC016 03/03 A3021 RMK AO2
                 P0002 RVRNO =
2018-12-15 02:13 METAR KMSV 150713Z AUTO 00000KT 1SM -RA BR FEW003 OVC018 03/03 A3021 RMK AO2
                 P0002 RVRNO =
2018-12-15 02:01 METAR KMSV 150701Z AUTO 00000KT 3/4SM -RA BR BKN018 OVC026 04/03 A3021 RMK AO2
                 P0000 RVRNO =
2018-12-15 01:56 METAR KMSV 150656Z AUTO 00000KT 1 1/2SM -RA BR BKN020 OVC027 04/03 A3021 RMK AO2
                 SLP241 P0002 T00390033 =
2018-12-15 01:40 METAR KMSV 150640Z AUTO VRB04KT 3SM -RA BR OVC020 04/03 A3020 RMK AO2 P0002 =
2018-12-15 01:29 METAR KMSV 150629Z AUTO 23003KT 2 1/2SM -RA BR SCT015 OVC020 04/03 A3021 RMK AO2
                 P0002 =
2018-12-15 01:19 METAR KMSV 150619Z AUTO 22004KT 1 3/4SM -RA BR OVC016 03/03 A3021 RMK AO2 P0001
                 =
2018-12-15 01:06 METAR KMSV 150606Z AUTO 28003KT 2 1/2SM -RA BR BKN016 BKN021 OVC027 03/03 A3022
                 RMK AO2 VIS 1 3/4V3 P0001 =
2018-12-15 00:56 METAR KMSV 150556Z AUTO 26003KT 3SM -RA BR BKN019 OVC027 03/03 A3021 RMK AO2
                 SLP243 P0002 60002 T00330033 10033 20022 56011 =
2018-12-15 00:52 METAR KMSV 150552Z AUTO 28003KT 3SM -RA BR BKN021 OVC027 03/03 A3021 RMK AO2
                 P0002 =
2018-12-15 00:30 METAR KMSV 150530Z AUTO 27003KT 2SM -RA BR BKN021 OVC029 03/03 A3022 RMK AO2
                 P0001 =
2018-12-15 00:16 METAR KMSV 150516Z AUTO 00000KT 1SM -RA BR BKN023 BKN029 OVC034 03/02 A3023 RMK
                 AO2 P0001 RVRNO =
2018-12-14 23:56 METAR KMSV 150456Z AUTO 00000KT 1/2SM -RA FG FEW001 OVC023 03/02 A3023 RMK AO2
                 SLP249 P0000 T00280022 400281011 RVRNO =
2018-12-14 23:48 METAR KMSV 150448Z AUTO 00000KT 1/2SM -RA FG SCT001 OVC023 03/02 A3023 RMK AO2
                 P0000 RVRNO =

Support USWX by starting your Amazon purchase here.